createdAt,value
2018-03-06T00:29:49.177Z,56.10
2018-03-06T00:32:16.985Z,57.40
2018-03-06T00:34:45.569Z,57.30
2018-03-06T00:37:13.353Z,57.20
2018-03-06T00:39:41.939Z,56.50
2018-03-06T00:42:09.757Z,56.50
2018-03-06T00:44:37.596Z,56.20
2018-03-06T00:47:05.403Z,56.70
2018-03-06T00:49:34.039Z,55.30
2018-03-06T00:52:01.854Z,55.30
2018-03-06T00:54:29.654Z,53.90
2018-03-06T00:56:57.442Z,54.80
2018-03-06T00:59:25.279Z,52.60
2018-03-06T01:01:53.097Z,51.30
2018-03-06T01:04:20.917Z,51.80
2018-03-06T01:06:48.720Z,50.90
2018-03-06T01:09:16.531Z,51.30
2018-03-06T01:11:44.359Z,51.20
2018-03-06T01:14:12.169Z,50.10
2018-03-06T01:16:39.966Z,51.00
2018-03-06T01:19:07.778Z,52.20
2018-03-06T01:21:36.383Z,51.30
2018-03-06T01:24:04.174Z,51.30
2018-03-06T01:26:31.965Z,53.10
2018-03-06T01:28:59.766Z,54.00
2018-03-06T01:31:27.586Z,54.30
2018-03-06T01:33:55.367Z,54.50
2018-03-06T01:36:23.191Z,54.60
2018-03-06T01:38:51.018Z,55.00
2018-03-06T01:41:19.694Z,53.30
2018-03-06T01:43:47.488Z,53.30
2018-03-06T01:46:16.049Z,54.80
2018-03-06T01:48:43.874Z,54.80
2018-03-06T01:51:11.713Z,54.50
2018-03-06T01:53:39.524Z,54.60
2018-03-06T01:56:07.321Z,54.70
2018-03-06T01:58:35.173Z,54.90
2018-03-06T02:01:02.990Z,55.20
2018-03-06T02:03:30.797Z,55.50
2018-03-06T02:05:58.598Z,55.50
2018-03-06T02:08:26.427Z,55.30
2018-03-06T02:10:54.224Z,55.30
2018-03-06T02:13:22.030Z,55.50
2018-03-06T02:15:50.001Z,55.50
2018-03-06T02:18:18.613Z,55.10
2018-03-06T02:20:47.221Z,53.60
2018-03-06T02:23:15.765Z,52.90
2018-03-06T02:25:43.562Z,52.90
2018-03-06T02:28:12.126Z,53.30
2018-03-06T02:30:40.781Z,53.30
2018-03-06T02:33:08.590Z,53.90
2018-03-06T02:35:37.137Z,53.30
2018-03-06T02:38:04.933Z,53.20
2018-03-06T02:40:33.502Z,52.70
2018-03-06T02:43:02.095Z,53.00
2018-03-06T02:45:29.902Z,53.00
2018-03-06T02:47:57.713Z,53.60
2018-03-06T02:50:25.506Z,53.70
2018-03-06T02:52:53.357Z,52.80
2018-03-06T02:55:21.188Z,52.00
2018-03-06T02:57:48.993Z,50.40
2018-03-06T03:00:17.553Z,49.50
2018-03-06T03:02:45.356Z,49.50
2018-03-06T03:05:13.214Z,50.90
2018-03-06T03:07:41.101Z,51.60
2018-03-06T03:10:08.956Z,52.10
2018-03-06T03:12:36.753Z,52.20
2018-03-06T03:15:04.547Z,52.40
2018-03-06T03:17:33.129Z,52.80
2018-03-06T03:20:01.714Z,53.00
2018-03-06T03:22:29.519Z,53.00
2018-03-06T03:24:57.325Z,53.00
2018-03-06T03:27:25.138Z,53.20
2018-03-06T03:29:52.949Z,53.20
2018-03-06T03:32:20.733Z,53.60
2018-03-06T03:34:48.537Z,54.10
2018-03-06T03:37:16.377Z,54.40
2018-03-06T03:39:44.945Z,54.60
2018-03-06T03:42:12.775Z,54.60
2018-03-06T03:44:40.582Z,55.20
2018-03-06T03:47:09.151Z,54.50
2018-03-06T03:49:36.951Z,54.40
2018-03-06T03:52:04.780Z,53.90
2018-03-06T03:54:32.594Z,51.50
2018-03-06T03:57:00.413Z,51.60
2018-03-06T03:59:28.214Z,52.50
2018-03-06T04:01:56.050Z,52.90
2018-03-06T04:04:24.634Z,52.80
2018-03-06T04:06:52.417Z,52.80
2018-03-06T04:09:21.008Z,53.00
2018-03-06T04:11:48.795Z,53.00
2018-03-06T04:14:16.581Z,53.20
2018-03-06T04:16:44.444Z,53.40
2018-03-06T04:19:12.996Z,53.30
2018-03-06T04:21:41.577Z,52.70
2018-03-06T04:24:09.402Z,52.70
2018-03-06T04:26:37.230Z,52.70
2018-03-06T04:29:05.033Z,52.60
2018-03-06T04:31:32.829Z,52.70
2018-03-06T04:34:00.618Z,52.70
2018-03-06T04:36:28.425Z,53.00
2018-03-06T04:38:56.208Z,53.20
2018-03-06T04:41:24.766Z,52.80
2018-03-06T04:43:52.578Z,52.70
2018-03-06T04:46:20.417Z,52.70
2018-03-06T04:48:48.212Z,52.40
2018-03-06T04:51:16.053Z,52.30
2018-03-06T04:53:43.863Z,51.50
2018-03-06T04:56:11.674Z,51.30
2018-03-06T04:58:39.482Z,51.20
2018-03-06T05:01:07.291Z,50.60
2018-03-06T05:03:35.874Z,48.90
2018-03-06T05:06:04.505Z,49.60
2018-03-06T05:08:32.360Z,49.60
2018-03-06T05:11:00.181Z,50.20
2018-03-06T05:13:28.007Z,49.90
2018-03-06T05:15:55.822Z,49.80
2018-03-06T05:18:24.397Z,50.10
2018-03-06T05:20:53.172Z,50.00
2018-03-06T05:23:20.993Z,49.90
2018-03-06T05:25:48.783Z,49.70
2018-03-06T05:28:16.601Z,50.00
2018-03-06T05:30:45.149Z,50.40
2018-03-06T05:33:12.961Z,50.40
2018-03-06T05:35:40.801Z,50.40
2018-03-06T05:38:08.638Z,50.30
2018-03-06T05:40:36.455Z,50.10
2018-03-06T05:43:04.273Z,50.00
2018-03-06T05:45:32.113Z,50.30
2018-03-06T05:47:59.918Z,50.50
2018-03-06T05:50:27.710Z,50.40
2018-03-06T05:52:56.273Z,50.50
2018-03-06T05:55:24.870Z,50.20
2018-03-06T05:57:52.696Z,50.20
2018-03-06T06:00:20.636Z,50.10
2018-03-06T06:02:48.433Z,50.20
2018-03-06T06:05:16.225Z,50.20
2018-03-06T06:07:44.805Z,50.20
2018-03-06T06:10:13.390Z,50.20
2018-03-06T06:12:41.243Z,50.20
2018-03-06T06:15:09.053Z,50.30
2018-03-06T06:17:37.593Z,50.60
2018-03-06T06:20:05.370Z,50.60
2018-03-06T06:22:33.167Z,50.30
2018-03-06T06:25:01.730Z,50.90
2018-03-06T06:27:29.502Z,50.90
2018-03-06T06:29:58.056Z,50.40
2018-03-06T06:32:25.879Z,50.30
2018-03-06T06:34:54.481Z,49.90
2018-03-06T06:37:22.312Z,49.90
2018-03-06T06:39:50.097Z,49.70
2018-03-06T06:42:17.914Z,49.40
2018-03-06T06:44:45.683Z,49.50
2018-03-06T06:47:14.254Z,45.90
2018-03-06T06:49:42.038Z,45.80
2018-03-06T06:52:09.826Z,47.70
2018-03-06T06:54:37.626Z,48.70
2018-03-06T06:57:05.457Z,49.10
2018-03-06T06:59:33.986Z,49.80
2018-03-06T07:02:01.866Z,49.80
2018-03-06T07:04:29.650Z,49.70
2018-03-06T07:06:58.218Z,50.00
2018-03-06T07:09:26.015Z,49.90
2018-03-06T07:11:54.635Z,50.20
2018-03-06T07:14:22.488Z,50.30
2018-03-06T07:16:50.277Z,50.90
2018-03-06T07:19:18.050Z,50.50
2018-03-06T07:21:45.825Z,50.60
2018-03-06T07:26:58.726Z,50.30
2018-03-06T07:29:26.538Z,50.40
2018-03-06T07:31:54.314Z,50.50
2018-03-06T07:34:22.931Z,50.30
2018-03-06T07:36:50.766Z,50.30
2018-03-06T07:39:18.528Z,50.20
2018-03-06T07:41:46.385Z,50.40
2018-03-06T07:44:14.157Z,50.80
2018-03-06T07:46:42.693Z,51.30
2018-03-06T07:49:10.506Z,51.30
2018-03-06T07:51:39.080Z,50.80
2018-03-06T07:54:07.689Z,49.40
2018-03-06T07:56:35.487Z,49.40
2018-03-06T07:59:03.318Z,50.50
2018-03-06T08:01:31.162Z,50.50
2018-03-06T08:03:59.748Z,49.70
2018-03-06T08:06:28.361Z,49.70
2018-03-06T08:08:56.918Z,49.20
2018-03-06T08:11:24.715Z,49.20
2018-03-06T08:13:52.651Z,49.40
2018-03-06T08:16:21.528Z,49.70
2018-03-06T08:18:50.072Z,50.10
2018-03-06T08:21:17.865Z,50.10
2018-03-06T08:23:46.346Z,48.90
2018-03-06T08:26:15.778Z,49.00
2018-03-06T08:28:44.557Z,48.90
2018-03-06T08:31:13.140Z,48.50
2018-03-06T08:33:41.689Z,50.50
2018-03-06T08:36:09.510Z,50.40
2018-03-06T08:38:38.194Z,49.70
2018-03-06T08:41:07.009Z,49.60
2018-03-06T08:43:34.798Z,48.50
2018-03-06T08:46:02.594Z,48.50
2018-03-06T08:48:31.960Z,46.50
2018-03-06T08:50:59.822Z,46.50
2018-03-06T08:53:27.619Z,46.30
2018-03-06T08:55:56.191Z,45.90
2018-03-06T08:58:24.791Z,45.50
2018-03-06T09:00:53.399Z,46.20
2018-03-06T09:03:21.237Z,46.20
2018-03-06T09:05:49.061Z,45.80
2018-03-06T09:08:16.860Z,46.50
2018-03-06T09:10:46.209Z,42.70
2018-03-06T09:13:14.030Z,42.60
2018-03-06T09:15:42.569Z,45.70
2018-03-06T09:18:10.418Z,45.70
2018-03-06T09:20:38.208Z,45.70
2018-03-06T09:23:06.010Z,44.70
2018-03-06T09:25:34.596Z,43.00
2018-03-06T09:28:03.175Z,44.20
2018-03-06T09:30:31.758Z,45.70
2018-03-06T09:33:00.393Z,45.50
2018-03-06T09:35:28.194Z,45.50
2018-03-06T09:37:56.817Z,43.10
2018-03-06T09:40:24.617Z,42.90
2018-03-06T09:42:52.394Z,40.90
2018-03-06T09:45:20.206Z,41.40
2018-03-06T09:47:48.011Z,41.50
2018-03-06T09:50:15.847Z,41.10
2018-03-06T09:52:43.637Z,40.90
2018-03-06T09:55:11.438Z,38.30
2018-03-06T09:57:40.023Z,38.50
2018-03-06T10:00:08.570Z,40.30
2018-03-06T10:02:36.352Z,40.20
2018-03-06T10:05:04.157Z,41.80
2018-03-06T10:07:31.948Z,42.00
2018-03-06T10:09:59.739Z,41.50
2018-03-06T10:12:27.555Z,40.60
2018-03-06T10:14:57.346Z,40.50
2018-03-06T10:17:25.914Z,41.80
2018-03-06T10:19:53.715Z,41.80
2018-03-06T10:22:21.519Z,41.80
2018-03-06T10:24:49.314Z,42.40
2018-03-06T10:27:17.114Z,41.60
2018-03-06T10:29:44.915Z,40.80
2018-03-06T10:32:12.710Z,42.20
2018-03-06T10:34:41.294Z,42.30
2018-03-06T10:37:09.844Z,43.30
2018-03-06T10:39:38.429Z,43.20
2018-03-06T10:42:06.234Z,43.20
2018-03-06T10:44:34.799Z,44.30
2018-03-06T10:47:03.377Z,44.00
2018-03-06T10:49:31.937Z,43.90
2018-03-06T10:51:59.798Z,43.90
2018-03-06T10:54:27.584Z,43.90
2018-03-06T10:56:55.373Z,42.40
2018-03-06T10:59:23.910Z,47.90
2018-03-06T11:01:57.547Z,47.80
2018-03-06T11:04:26.142Z,50.90
2018-03-06T11:06:54.695Z,51.70
2018-03-06T11:09:22.508Z,51.70
2018-03-06T11:11:50.286Z,53.20
2018-03-06T11:14:18.107Z,53.70
2018-03-06T11:16:45.918Z,53.40
2018-03-06T11:19:13.697Z,54.10
2018-03-06T11:21:43.025Z,54.00
2018-03-06T11:24:11.064Z,54.90
2018-03-06T11:26:38.848Z,55.00
2018-03-06T11:29:06.662Z,54.40
2018-03-06T11:31:34.451Z,54.20
2018-03-06T11:34:02.251Z,54.00
2018-03-06T11:36:30.093Z,53.70
2018-03-06T11:38:57.889Z,53.60
2018-03-06T11:41:26.438Z,54.30
2018-03-06T11:43:54.221Z,54.20
2018-03-06T11:46:22.015Z,53.80
2018-03-06T11:48:50.557Z,53.90
2018-03-06T11:51:18.349Z,53.90
2018-03-06T11:53:46.928Z,53.70
2018-03-06T11:56:15.488Z,53.10
2018-03-06T11:58:43.274Z,53.20
2018-03-06T12:01:11.070Z,53.80
2018-03-06T12:03:38.857Z,53.50
2018-03-06T12:06:06.677Z,53.70
2018-03-06T12:08:35.259Z,53.80
2018-03-06T12:11:03.931Z,54.50
2018-03-06T12:13:31.714Z,54.50
2018-03-06T12:16:00.406Z,52.90
2018-03-06T12:18:29.008Z,53.10
2018-03-06T12:20:56.802Z,53.10
2018-03-06T12:23:24.606Z,53.10
2018-03-06T12:25:53.171Z,52.90
2018-03-06T12:28:21.036Z,52.90
2018-03-06T12:30:48.821Z,53.90
2018-03-06T12:33:17.378Z,52.70
2018-03-06T12:35:45.231Z,52.70
2018-03-06T12:38:13.044Z,53.00
2018-03-06T12:40:41.598Z,52.40
2018-03-06T12:43:09.455Z,52.40
2018-03-06T12:45:37.270Z,53.00
2018-03-06T12:48:05.110Z,53.20
2018-03-06T12:50:33.658Z,53.00
2018-03-06T12:53:01.514Z,53.10
2018-03-06T12:55:29.361Z,53.90
2018-03-06T12:57:57.157Z,53.70
2018-03-06T13:00:24.953Z,54.20
2018-03-06T13:02:53.686Z,53.00
2018-03-06T13:05:21.458Z,52.90
2018-03-06T13:07:49.283Z,52.70
2018-03-06T13:10:17.865Z,53.60
2018-03-06T13:12:45.672Z,53.50
2018-03-06T13:15:13.449Z,54.10
2018-03-06T13:17:41.257Z,54.10
2018-03-06T13:20:09.126Z,54.40
2018-03-06T13:22:36.949Z,55.20
2018-03-06T13:25:04.741Z,56.10
2018-03-06T13:27:33.288Z,57.80
2018-03-06T13:30:01.151Z,57.80
2018-03-06T13:32:28.938Z,57.70
2018-03-06T13:34:57.521Z,58.10
2018-03-06T13:37:25.294Z,58.10
2018-03-06T13:39:53.113Z,58.40
2018-03-06T13:42:20.923Z,59.10
2018-03-06T13:44:49.481Z,59.80
2018-03-06T13:47:17.265Z,59.80
2018-03-06T13:49:45.039Z,59.90
2018-03-06T13:52:13.729Z,59.50
2018-03-06T13:54:41.562Z,60.20
2018-03-06T13:57:09.364Z,59.50
2018-03-06T13:59:37.969Z,60.20
2018-03-06T14:02:05.822Z,60.10
2018-03-06T14:04:33.681Z,60.60
2018-03-06T14:07:02.262Z,60.40
2018-03-06T14:09:30.850Z,60.70
2018-03-06T14:11:59.422Z,62.00
2018-03-06T14:14:27.973Z,62.70
2018-03-06T14:16:55.799Z,62.80
2018-03-06T14:19:23.683Z,61.80
2018-03-06T14:21:51.466Z,61.60
2018-03-06T14:24:19.249Z,62.10
2018-03-06T14:26:47.037Z,62.10
2018-03-06T14:29:15.603Z,62.70
2018-03-06T14:31:43.428Z,62.70
2018-03-06T14:34:11.240Z,63.00
2018-03-06T14:36:39.883Z,63.90
2018-03-06T14:39:07.690Z,63.90
2018-03-06T14:41:36.242Z,65.20
2018-03-06T14:44:04.035Z,65.20
2018-03-06T14:46:32.597Z,65.30
2018-03-06T14:49:00.390Z,65.30
2018-03-06T14:51:29.021Z,64.60
2018-03-06T14:53:56.825Z,64.60
2018-03-06T14:56:25.386Z,65.30
2018-03-06T14:58:53.161Z,65.40
2018-03-06T15:01:21.738Z,64.90
2018-03-06T15:03:49.546Z,65.00
2018-03-06T15:06:18.090Z,66.30
2018-03-06T15:08:45.880Z,66.30
2018-03-06T15:11:14.529Z,65.80
2018-03-06T15:13:42.335Z,65.80
2018-03-06T15:16:10.958Z,65.70
2018-03-06T15:18:38.746Z,65.70
2018-03-06T15:21:06.542Z,66.00
2018-03-06T15:23:35.097Z,66.50
2018-03-06T15:26:02.894Z,66.50
2018-03-06T15:28:31.454Z,65.80
2018-03-06T15:30:59.314Z,65.80
2018-03-06T15:33:27.137Z,65.50
2018-03-06T15:35:54.970Z,65.60
2018-03-06T15:38:23.558Z,64.90
2018-03-06T15:40:51.355Z,64.90
2018-03-06T15:43:19.318Z,65.50
2018-03-06T15:45:47.260Z,65.60
2018-03-06T15:48:15.696Z,65.60
2018-03-06T15:50:44.165Z,65.90
2018-03-06T15:53:11.959Z,65.60
2018-03-06T15:55:39.829Z,66.40
2018-03-06T15:58:07.702Z,65.90
2018-03-06T16:00:35.542Z,65.70
2018-03-06T16:03:03.322Z,67.00
2018-03-06T16:05:31.389Z,66.40
2018-03-06T16:08:00.016Z,66.30
2018-03-06T16:10:27.943Z,66.20
2018-03-06T16:12:57.265Z,67.80
2018-03-06T16:15:25.850Z,67.90
2018-03-06T16:17:54.399Z,68.60
2018-03-06T16:20:22.194Z,68.50
2018-03-06T16:22:50.746Z,69.10
2018-03-06T16:25:18.539Z,69.10
2018-03-06T16:27:47.110Z,69.20
2018-03-06T16:30:14.900Z,69.20
2018-03-06T16:32:42.675Z,69.70
2018-03-06T16:35:10.493Z,70.00
2018-03-06T16:37:38.294Z,70.10
2018-03-06T16:40:06.103Z,70.00
2018-03-06T16:42:33.955Z,70.30
2018-03-06T16:45:01.748Z,70.40
2018-03-06T16:47:29.595Z,70.40
2018-03-06T16:49:57.689Z,70.30
2018-03-06T16:52:25.523Z,70.70
2018-03-06T16:54:53.294Z,70.50
2018-03-06T16:57:21.179Z,70.20
2018-03-06T16:59:49.001Z,70.70
2018-03-06T17:02:17.123Z,70.60
2018-03-06T17:04:45.163Z,70.80
2018-03-06T17:07:12.914Z,70.00
2018-03-06T17:09:41.226Z,70.20
2018-03-06T17:12:09.687Z,69.90
2018-03-06T17:14:37.467Z,70.20
2018-03-06T17:17:05.253Z,70.50
2018-03-06T17:19:33.165Z,70.60
2018-03-06T17:22:01.028Z,70.90
2018-03-06T17:24:28.946Z,71.90
2018-03-06T17:26:56.736Z,71.50
2018-03-06T17:29:25.318Z,72.00
2018-03-06T17:31:54.718Z,72.10
2018-03-06T17:34:23.263Z,72.60
2018-03-06T17:36:51.094Z,72.60
2018-03-06T17:39:18.883Z,73.20
2018-03-06T17:41:46.690Z,73.40
2018-03-06T17:44:15.283Z,73.80
2018-03-06T17:46:43.970Z,74.10
2018-03-06T17:49:12.526Z,74.40
2018-03-06T17:51:40.339Z,74.30
2018-03-06T17:54:08.190Z,74.60
2018-03-06T17:56:35.974Z,74.70
2018-03-06T17:59:03.777Z,75.10
2018-03-06T18:01:31.604Z,75.50
2018-03-06T18:03:59.426Z,75.60
2018-03-06T18:06:27.202Z,76.10
2018-03-06T18:08:55.752Z,76.50
2018-03-06T18:11:23.535Z,76.50
2018-03-06T18:13:52.172Z,77.70
2018-03-06T18:16:19.996Z,77.70
2018-03-06T18:18:49.595Z,78.60
2018-03-06T18:21:17.411Z,78.60
2018-03-06T18:23:45.210Z,79.10
2018-03-06T18:26:13.046Z,79.60
2018-03-06T18:28:40.855Z,79.70
2018-03-06T18:31:09.450Z,79.70
2018-03-06T18:33:38.279Z,79.70
2018-03-06T18:36:06.082Z,79.20
2018-03-06T18:38:33.940Z,80.00
2018-03-06T18:41:01.785Z,80.30
2018-03-06T18:43:29.618Z,80.50
2018-03-06T18:45:57.412Z,80.00
2018-03-06T18:48:25.195Z,80.30
2018-03-06T18:51:04.629Z,80.30
2018-03-06T18:53:33.083Z,80.40
2018-03-06T18:56:00.877Z,80.30
2018-03-06T18:58:28.680Z,79.90
2018-03-06T19:01:19.874Z,80.10
2018-03-06T19:03:59.343Z,80.10
2018-03-06T19:06:33.743Z,80.10
2018-03-06T19:09:01.539Z,79.70
2018-03-06T19:11:29.394Z,79.50
2018-03-06T19:13:57.864Z,79.10
2018-03-06T19:16:25.702Z,78.90
2018-03-06T19:18:53.487Z,78.90
2018-03-06T19:21:22.078Z,78.50
2018-03-06T19:23:51.258Z,78.30
2018-03-06T19:26:19.963Z,78.20
2018-03-06T19:28:47.829Z,78.20
2018-03-06T19:31:15.696Z,78.00
2018-03-06T19:33:43.517Z,77.90
2018-03-06T19:36:11.329Z,77.40
2018-03-06T19:38:39.133Z,77.10
2018-03-06T19:41:06.969Z,77.30
2018-03-06T19:43:34.782Z,77.00
2018-03-06T19:46:02.583Z,77.30
2018-03-06T19:48:30.400Z,76.70
2018-03-06T19:50:59.150Z,76.60
2018-03-06T19:53:27.370Z,76.30
2018-03-06T19:55:55.181Z,76.00
2018-03-06T19:58:23.119Z,76.00
2018-03-06T20:00:50.903Z,77.00
2018-03-06T20:03:20.226Z,78.10
2018-03-06T20:05:48.058Z,77.40
2018-03-06T20:08:16.691Z,77.60
2018-03-06T20:10:44.519Z,77.60
2018-03-06T20:13:13.077Z,77.50
2018-03-06T20:15:40.871Z,77.50
2018-03-06T20:18:08.686Z,78.20
2018-03-06T20:20:36.482Z,78.00
2018-03-06T20:23:05.082Z,78.10
2018-03-06T20:25:39.158Z,78.10
2018-03-06T20:28:06.970Z,78.10
2018-03-06T20:30:40.369Z,78.70
2018-03-06T20:33:19.544Z,78.40
2018-03-06T20:35:47.704Z,77.80
2018-03-06T20:38:21.082Z,77.20
2018-03-06T20:40:48.937Z,76.60
2018-03-06T20:43:17.498Z,76.30
2018-03-06T20:45:51.864Z,75.80
2018-03-06T20:48:20.010Z,75.80
2018-03-06T20:50:47.813Z,76.00
2018-03-06T20:53:21.167Z,76.10
2018-03-06T20:55:48.994Z,76.10
2018-03-06T20:58:17.578Z,76.20
2018-03-06T21:00:45.461Z,76.20
2018-03-06T21:03:14.046Z,76.50
2018-03-06T21:05:42.586Z,76.20
2018-03-06T21:08:10.406Z,76.20
2018-03-06T21:10:39.476Z,76.30
2018-03-06T21:13:08.024Z,76.70
2018-03-06T21:15:35.884Z,76.70
2018-03-06T21:18:03.710Z,76.50
2018-03-06T21:20:32.254Z,76.20
2018-03-06T21:23:00.042Z,76.20
2018-03-06T21:25:28.621Z,76.10
2018-03-06T21:27:57.283Z,76.10
2018-03-06T21:30:25.351Z,76.20
2018-03-06T21:32:53.138Z,76.30
2018-03-06T21:35:21.035Z,76.00
2018-03-06T21:37:48.939Z,75.60
2018-03-06T21:40:16.822Z,75.30
2018-03-06T21:42:44.977Z,75.00
2018-03-06T21:45:12.745Z,74.90
2018-03-06T21:47:40.526Z,74.70
2018-03-06T21:50:09.542Z,74.30
2018-03-06T21:52:37.375Z,73.90
2018-03-06T21:55:05.955Z,73.70
2018-03-06T21:57:33.752Z,73.50
2018-03-06T22:00:02.298Z,73.00
2018-03-06T22:02:30.098Z,73.10
2018-03-06T22:04:58.648Z,73.30
2018-03-06T22:07:26.420Z,73.30
2018-03-06T22:09:54.203Z,73.30
2018-03-06T22:12:22.801Z,73.10
2018-03-06T22:14:51.342Z,73.00
2018-03-06T22:17:19.150Z,73.00
2018-03-06T22:19:47.734Z,72.60
2018-03-06T22:22:16.266Z,72.40
2018-03-06T22:24:44.031Z,72.40
2018-03-06T22:27:11.802Z,72.50
2018-03-06T22:29:39.655Z,72.10
2018-03-06T22:32:07.413Z,71.60
2018-03-06T22:34:35.196Z,70.60
2018-03-06T22:37:03.001Z,70.30
2018-03-06T22:39:31.650Z,70.40
2018-03-06T22:41:59.445Z,70.40
2018-03-06T22:44:28.032Z,70.20
2018-03-06T22:46:56.579Z,70.40
2018-03-06T22:49:24.393Z,70.40
2018-03-06T22:51:52.168Z,70.50
2018-03-06T22:54:19.977Z,70.10
2018-03-06T22:56:47.884Z,69.90
2018-03-06T22:59:15.690Z,69.80
2018-03-06T23:01:43.480Z,69.70
2018-03-06T23:04:11.255Z,69.70
2018-03-06T23:06:39.799Z,70.20
2018-03-06T23:09:07.671Z,70.20
2018-03-06T23:11:35.439Z,69.90
2018-03-06T23:14:03.232Z,69.60
2018-03-06T23:16:31.794Z,69.00
2018-03-06T23:18:59.587Z,69.00
2018-03-06T23:21:28.214Z,68.90
2018-03-06T23:23:55.993Z,68.80
2018-03-06T23:26:23.773Z,69.00
2018-03-06T23:28:51.549Z,69.00
2018-03-06T23:31:19.345Z,68.90
2018-03-06T23:33:47.121Z,68.70
2018-03-06T23:36:14.951Z,68.40
2018-03-06T23:38:43.517Z,68.40
2018-03-06T23:41:11.295Z,68.40
2018-03-06T23:43:39.860Z,67.90
2018-03-06T23:46:07.682Z,67.90
2018-03-06T23:48:35.474Z,67.50
2018-03-06T23:51:03.237Z,67.60
2018-03-06T23:53:31.017Z,68.40
2018-03-06T23:55:58.888Z,67.70
2018-03-06T23:58:26.657Z,67.90
